createdAt,value
2022-09-06T00:01:11.972Z,8.93
2022-09-06T00:03:39.549Z,8.25
2022-09-06T00:06:11.490Z,5.68
2022-09-06T00:08:39.077Z,10.15
2022-09-06T00:11:06.870Z,6.65
2022-09-06T00:13:33.713Z,4.40
2022-09-06T00:16:11.232Z,4.45
2022-09-06T00:18:38.680Z,3.05
2022-09-06T00:21:13.502Z,6.13
2022-09-06T00:23:40.515Z,5.05
2022-09-06T00:26:07.204Z,4.97
2022-09-06T00:28:33.888Z,5.20
2022-09-06T00:31:15.986Z,5.38
2022-09-06T00:33:43.015Z,8.15
2022-09-06T00:36:11.178Z,11.50
2022-09-06T00:38:38.653Z,7.72
2022-09-06T00:41:08.052Z,10.10
2022-09-06T00:43:34.897Z,7.95
2022-09-06T00:46:03.620Z,6.80
2022-09-06T00:48:31.152Z,6.18
2022-09-06T00:51:04.272Z,6.05
2022-09-06T00:53:31.993Z,7.72
2022-09-06T00:55:59.884Z,4.60
2022-09-06T00:58:27.408Z,9.63
2022-09-06T01:00:54.621Z,6.43
2022-09-06T01:03:24.377Z,7.07
2022-09-06T01:06:09.932Z,5.45
2022-09-06T01:08:45.516Z,7.60
2022-09-06T01:11:33.549Z,3.88
2022-09-06T01:14:24.674Z,5.30
2022-09-06T01:16:58.189Z,4.13
2022-09-06T01:19:41.732Z,4.18
2022-09-06T01:22:49.598Z,5.25
2022-09-06T01:25:54.981Z,7.65
2022-09-06T01:28:37.548Z,4.35
2022-09-06T01:31:25.490Z,3.92
2022-09-06T01:34:07.470Z,3.83
2022-09-06T01:37:08.552Z,3.38
2022-09-06T01:39:35.829Z,5.25
2022-09-06T01:42:14.968Z,4.45
2022-09-06T01:44:46.886Z,4.72
2022-09-06T01:47:29.236Z,5.15
2022-09-06T01:50:34.065Z,5.38
2022-09-06T01:53:25.325Z,4.03
2022-09-06T01:56:01.032Z,4.00
2022-09-06T01:59:03.285Z,4.85
2022-09-06T02:02:02.900Z,4.82
2022-09-06T02:05:11.281Z,4.45
2022-09-06T02:07:39.655Z,7.40
2022-09-06T02:10:22.519Z,8.88
2022-09-06T02:12:54.252Z,4.95
2022-09-06T02:15:38.460Z,4.38
2022-09-06T02:18:11.859Z,3.72
2022-09-06T02:20:47.278Z,4.80
2022-09-06T02:23:16.451Z,4.75
2022-09-06T02:26:01.853Z,5.95
2022-09-06T02:28:28.938Z,2.97
2022-09-06T02:31:04.202Z,7.57
2022-09-06T02:33:32.691Z,3.03
2022-09-06T02:36:06.284Z,4.05
2022-09-06T02:38:35.414Z,5.07
2022-09-06T02:41:03.242Z,4.93
2022-09-06T02:43:30.026Z,5.63
2022-09-06T02:45:57.074Z,6.05
2022-09-06T02:48:23.881Z,5.38
2022-09-06T02:50:50.986Z,7.45
2022-09-06T02:53:18.303Z,6.28
2022-09-06T02:55:47.953Z,6.07
2022-09-06T02:58:15.717Z,5.40
2022-09-06T03:00:44.251Z,6.40
2022-09-06T03:03:11.116Z,6.28
2022-09-06T03:05:38.163Z,5.85
2022-09-06T03:08:04.955Z,6.28
2022-09-06T03:10:32.007Z,5.25
2022-09-06T03:12:58.852Z,4.65
2022-09-06T03:15:25.957Z,6.75
2022-09-06T03:17:56.630Z,7.03
2022-09-06T03:20:24.437Z,3.53
2022-09-06T03:22:51.123Z,4.97
2022-09-06T03:25:18.185Z,5.00
2022-09-06T03:27:44.847Z,6.00
2022-09-06T03:30:12.296Z,5.18
2022-09-06T03:32:38.951Z,8.43
2022-09-06T03:35:06.321Z,5.32
2022-09-06T03:37:33.069Z,7.70
2022-09-06T03:40:00.280Z,9.38
2022-09-06T03:42:27.515Z,5.03
2022-09-06T03:44:54.511Z,7.20
2022-09-06T03:47:21.263Z,6.25
2022-09-06T03:49:48.309Z,5.25
2022-09-06T03:52:15.868Z,5.40
2022-09-06T03:54:42.903Z,4.75
2022-09-06T03:57:10.572Z,5.03
2022-09-06T03:59:37.643Z,5.78
2022-09-06T04:02:04.531Z,6.82
2022-09-06T04:04:31.605Z,6.88
2022-09-06T04:06:58.285Z,6.85
2022-09-06T04:09:25.291Z,4.72
2022-09-06T04:11:52.057Z,6.72
2022-09-06T04:14:19.122Z,5.72
2022-09-06T04:16:45.992Z,6.07
2022-09-06T04:19:13.157Z,5.63
2022-09-06T04:21:39.852Z,6.97
2022-09-06T04:24:07.290Z,6.30
2022-09-06T04:26:34.073Z,5.32
2022-09-06T04:29:01.135Z,5.80
2022-09-06T04:31:27.948Z,4.75
2022-09-06T04:33:54.989Z,4.90
2022-09-06T04:36:21.744Z,6.50
2022-09-06T04:38:48.490Z,5.05
2022-09-06T04:41:16.455Z,5.40
2022-09-06T04:43:43.794Z,10.32
2022-09-06T04:46:28.478Z,8.73
2022-09-06T04:48:56.499Z,6.35
2022-09-06T04:51:24.991Z,7.32
2022-09-06T04:53:52.570Z,7.60
2022-09-06T04:56:25.356Z,4.80
2022-09-06T04:58:54.983Z,5.78
2022-09-06T05:01:22.728Z,6.38
2022-09-06T05:03:52.177Z,5.90
2022-09-06T05:06:23.680Z,7.45
2022-09-06T05:08:50.667Z,9.45
2022-09-06T05:11:18.204Z,9.65
2022-09-06T05:13:46.866Z,9.07
2022-09-06T05:16:13.691Z,6.28
2022-09-06T05:18:40.789Z,9.85
2022-09-06T05:21:07.681Z,8.32
2022-09-06T05:23:35.260Z,6.60
2022-09-06T05:26:02.159Z,9.20
2022-09-06T05:28:29.355Z,9.93
2022-09-06T05:31:10.931Z,9.02
2022-09-06T05:33:38.330Z,19.52
2022-09-06T05:36:06.500Z,15.43
2022-09-06T05:38:33.856Z,15.70
2022-09-06T05:41:00.721Z,18.65
2022-09-06T05:43:27.791Z,14.70
2022-09-06T05:45:54.711Z,12.80
2022-09-06T05:48:21.999Z,12.95
2022-09-06T05:50:58.807Z,11.07
2022-09-06T05:53:25.789Z,15.05
2022-09-06T05:55:52.454Z,12.65
2022-09-06T05:58:19.492Z,11.88
2022-09-06T06:00:46.744Z,13.02
2022-09-06T06:03:13.797Z,10.88
2022-09-06T06:05:40.455Z,14.82
2022-09-06T06:08:07.572Z,14.70
2022-09-06T06:10:38.495Z,17.27
2022-09-06T06:13:05.894Z,13.00
2022-09-06T06:15:32.644Z,25.10
2022-09-06T06:17:59.631Z,14.90
2022-09-06T06:20:26.339Z,11.70
2022-09-06T06:22:53.317Z,13.90
2022-09-06T06:25:23.029Z,15.30
2022-09-06T06:27:50.420Z,12.18
2022-09-06T06:30:18.607Z,13.80
2022-09-06T06:32:45.957Z,15.07
2022-09-06T06:35:12.821Z,16.08
2022-09-06T06:37:39.932Z,13.32
2022-09-06T06:40:07.243Z,13.05
2022-09-06T06:42:34.309Z,10.90
2022-09-06T06:45:01.015Z,9.93
2022-09-06T06:47:28.055Z,9.35
2022-09-06T06:49:54.719Z,10.98
2022-09-06T06:52:22.340Z,11.23
2022-09-06T06:54:50.076Z,10.95
2022-09-06T06:57:17.249Z,13.02
2022-09-06T06:59:44.001Z,11.15
2022-09-06T07:02:11.187Z,12.18
2022-09-06T07:04:38.043Z,11.20
2022-09-06T07:12:39.881Z,9.18
2022-09-06T07:15:06.947Z,9.20
2022-09-06T07:17:34.650Z,11.50
2022-09-06T07:20:16.942Z,12.35
2022-09-06T07:22:44.070Z,7.68
2022-09-06T07:25:14.505Z,9.32
2022-09-06T07:30:14.370Z,11.60
2022-09-06T07:32:41.492Z,8.82
2022-09-06T07:35:08.719Z,8.85
2022-09-06T07:37:35.542Z,9.00
2022-09-06T07:40:04.284Z,8.40
2022-09-06T07:42:36.632Z,5.78
2022-09-06T07:45:05.597Z,7.57
2022-09-06T07:53:08.222Z,6.28
2022-09-06T07:55:37.801Z,5.88
2022-09-06T07:58:04.859Z,4.07
2022-09-06T08:00:31.908Z,7.68
2022-09-06T08:02:59.042Z,7.40
2022-09-06T08:10:59.380Z,10.55
2022-09-06T08:13:26.370Z,11.38
2022-09-06T08:16:04.485Z,9.15
2022-09-06T08:18:31.508Z,6.57
2022-09-06T08:21:11.547Z,9.18
2022-09-06T08:23:49.741Z,10.38
2022-09-06T08:26:17.345Z,7.63
2022-09-06T08:28:44.490Z,8.93
2022-09-06T08:31:16.537Z,6.00
2022-09-06T08:33:44.453Z,7.32
2022-09-06T08:36:11.798Z,5.95
2022-09-06T08:38:39.099Z,5.28
2022-09-06T08:41:27.492Z,6.10
2022-09-06T08:46:56.854Z,9.20
2022-09-06T08:49:30.807Z,6.35
2022-09-06T08:52:14.426Z,3.17
2022-09-06T08:54:47.373Z,5.20
2022-09-06T08:57:40.866Z,6.22
2022-09-06T09:00:12.054Z,3.50
2022-09-06T09:02:52.242Z,5.20
2022-09-06T09:05:32.942Z,6.68
2022-09-06T09:08:08.769Z,3.08
2022-09-06T09:11:00.976Z,5.93
2022-09-06T09:13:47.844Z,4.70
2022-09-06T09:16:15.682Z,4.57
2022-09-06T09:18:46.389Z,6.47
2022-09-06T09:21:15.405Z,4.97
2022-09-06T09:23:42.607Z,2.63
2022-09-06T09:26:15.428Z,6.40
2022-09-06T09:29:10.414Z,3.55
2022-09-06T09:31:43.294Z,4.10
2022-09-06T09:34:15.484Z,2.95
2022-09-06T09:39:37.060Z,5.07
2022-09-06T09:42:04.367Z,3.67
2022-09-06T09:44:31.449Z,4.15
2022-09-06T09:46:58.388Z,6.05
2022-09-06T09:49:25.567Z,2.70
2022-09-06T09:52:29.258Z,6.63
2022-09-06T09:55:04.532Z,4.50
2022-09-06T09:57:43.714Z,5.68
2022-09-06T10:00:14.176Z,5.18
2022-09-06T10:02:43.004Z,6.88
2022-09-06T10:05:13.277Z,2.93
2022-09-06T10:07:47.328Z,5.60
2022-09-06T10:10:25.872Z,3.80
2022-09-06T10:13:23.630Z,4.95
2022-09-06T10:15:52.225Z,7.13
2022-09-06T10:18:36.570Z,4.28
2022-09-06T10:21:16.350Z,5.15
2022-09-06T10:26:44.829Z,6.18
2022-09-06T10:29:14.375Z,4.53
2022-09-06T10:31:53.673Z,5.05
2022-09-06T10:34:26.204Z,8.40
2022-09-06T10:37:11.036Z,5.90
2022-09-06T10:39:56.214Z,4.75
2022-09-06T10:42:50.023Z,5.07
2022-09-06T10:45:23.114Z,4.25
2022-09-06T10:48:13.959Z,3.28
2022-09-06T10:51:02.077Z,4.55
2022-09-06T10:53:50.987Z,5.43
2022-09-06T10:56:41.909Z,5.95
2022-09-06T10:59:39.124Z,7.78
2022-09-06T11:02:18.831Z,7.53
2022-09-06T11:10:24.237Z,5.40
2022-09-06T11:13:03.191Z,5.75
2022-09-06T11:15:43.245Z,5.15
2022-09-06T11:18:15.123Z,6.10
2022-09-06T11:20:51.983Z,5.43
2022-09-06T11:23:27.652Z,5.88
2022-09-06T11:26:04.685Z,4.80
2022-09-06T11:28:58.814Z,6.65
2022-09-06T11:34:34.158Z,7.40
2022-09-06T11:37:08.855Z,7.63
2022-09-06T11:42:46.308Z,6.55
2022-09-06T11:45:22.470Z,6.80
2022-09-06T11:47:53.284Z,8.13
2022-09-06T11:50:29.096Z,3.53
2022-09-06T11:53:03.490Z,5.38
2022-09-06T11:55:39.204Z,12.18
2022-09-06T11:58:31.632Z,6.32
2022-09-06T12:01:21.961Z,11.55
2022-09-06T12:04:05.591Z,7.22
2022-09-06T12:06:41.071Z,4.15
2022-09-06T12:09:37.570Z,9.00
2022-09-06T12:12:05.100Z,8.65
2022-09-06T12:14:43.192Z,6.68
2022-09-06T12:17:10.203Z,5.05
2022-09-06T12:19:56.156Z,6.55
2022-09-06T12:22:40.524Z,5.57
2022-09-06T12:25:16.412Z,5.65
2022-09-06T12:28:01.229Z,6.88
2022-09-06T12:30:43.516Z,9.77
2022-09-06T12:33:36.536Z,9.30
2022-09-06T12:36:17.727Z,11.60
2022-09-06T12:39:03.116Z,11.00
2022-09-06T12:41:38.307Z,9.27
2022-09-06T12:44:08.280Z,8.18
2022-09-06T12:46:36.469Z,11.85
2022-09-06T12:49:09.629Z,3.35
2022-09-06T12:51:38.390Z,7.20
2022-09-06T12:54:19.756Z,7.00
2022-09-06T12:56:46.826Z,8.75
2022-09-06T12:59:23.420Z,6.47
2022-09-06T13:01:56.618Z,10.23
2022-09-06T13:04:28.221Z,10.75
2022-09-06T13:06:56.286Z,5.97
2022-09-06T13:09:27.026Z,4.55
2022-09-06T13:11:59.138Z,6.63
2022-09-06T13:14:29.939Z,4.75
2022-09-06T13:16:59.950Z,6.28
2022-09-06T13:19:40.851Z,7.80
2022-09-06T13:22:11.333Z,7.72
2022-09-06T13:24:47.076Z,8.88
2022-09-06T13:27:34.007Z,4.57
2022-09-06T13:30:10.013Z,4.45
2022-09-06T13:32:46.596Z,9.90
2022-09-06T13:35:23.845Z,10.00
2022-09-06T13:37:51.231Z,8.20
2022-09-06T13:41:07.122Z,10.90
2022-09-06T13:43:29.963Z,11.45
2022-09-06T13:46:08.963Z,10.13
2022-09-06T13:48:36.735Z,9.13
2022-09-06T13:51:06.258Z,5.70
2022-09-06T13:53:34.697Z,7.88
2022-09-06T13:56:01.545Z,9.30
2022-09-06T13:58:30.325Z,8.70
2022-09-06T14:00:58.327Z,8.27
2022-09-06T14:03:28.801Z,11.55
2022-09-06T14:05:55.554Z,9.95
2022-09-06T14:08:22.729Z,8.38
2022-09-06T14:10:51.236Z,6.85
2022-09-06T14:13:19.129Z,6.80
2022-09-06T14:15:47.227Z,5.32
2022-09-06T14:18:15.137Z,7.25
2022-09-06T14:20:42.849Z,6.13
2022-09-06T14:23:09.615Z,9.60
2022-09-06T14:25:37.936Z,4.90
2022-09-06T14:28:05.083Z,5.45
2022-09-06T14:30:32.355Z,8.75
2022-09-06T14:32:59.203Z,8.75
2022-09-06T14:35:28.096Z,7.75
2022-09-06T14:37:54.828Z,7.10
2022-09-06T14:40:22.024Z,7.90
2022-09-06T14:42:50.541Z,6.90
2022-09-06T14:45:18.104Z,8.30
2022-09-06T14:47:44.764Z,9.15
2022-09-06T14:50:11.909Z,9.07
2022-09-06T14:52:38.598Z,11.00
2022-09-06T14:55:06.203Z,12.40
2022-09-06T14:57:33.172Z,6.22
2022-09-06T15:00:01.011Z,15.77
2022-09-06T15:02:29.030Z,10.55
2022-09-06T15:04:56.111Z,13.40
2022-09-06T15:07:22.790Z,5.65
2022-09-06T15:09:51.329Z,8.65
2022-09-06T15:12:18.117Z,8.70
2022-09-06T15:14:45.193Z,4.25
2022-09-06T15:17:12.011Z,5.55
2022-09-06T15:19:39.949Z,11.25
2022-09-06T15:22:07.130Z,4.63
2022-09-06T15:24:34.909Z,9.05
2022-09-06T15:27:01.620Z,11.82
2022-09-06T15:29:29.149Z,7.82
2022-09-06T15:31:56.046Z,7.95
2022-09-06T15:34:27.055Z,10.05
2022-09-06T15:36:54.424Z,9.32
2022-09-06T15:39:21.565Z,8.40
2022-09-06T15:41:50.306Z,10.73
2022-09-06T15:44:19.235Z,6.38
2022-09-06T15:46:51.483Z,12.23
2022-09-06T15:49:26.988Z,10.38
2022-09-06T15:51:56.284Z,10.23
2022-09-06T15:54:42.199Z,4.88
2022-09-06T15:57:09.043Z,13.00
2022-09-06T15:59:35.911Z,4.90
2022-09-06T16:02:03.265Z,7.07
2022-09-06T16:04:30.353Z,7.40
2022-09-06T16:06:57.054Z,8.57
2022-09-06T16:09:24.219Z,9.35
2022-09-06T16:11:50.869Z,6.40
2022-09-06T16:14:18.676Z,5.97
2022-09-06T16:16:45.620Z,8.77
2022-09-06T16:19:13.582Z,7.65
2022-09-06T16:21:42.411Z,6.60
2022-09-06T16:24:12.441Z,10.80
2022-09-06T16:26:44.753Z,6.47
2022-09-06T16:29:13.705Z,7.80
2022-09-06T16:31:41.018Z,11.88
2022-09-06T16:34:12.773Z,7.55
2022-09-06T16:36:39.552Z,6.28
2022-09-06T16:39:07.456Z,9.73
2022-09-06T16:41:45.684Z,8.02
2022-09-06T16:44:17.281Z,6.32
2022-09-06T16:46:46.847Z,5.85
2022-09-06T16:49:17.253Z,6.97
2022-09-06T16:51:44.866Z,7.88
2022-09-06T16:54:12.238Z,7.70
2022-09-06T16:56:40.007Z,8.05
2022-09-06T16:59:09.522Z,5.25
2022-09-06T17:01:38.658Z,8.88
2022-09-06T17:04:06.147Z,8.52
2022-09-06T17:06:34.121Z,7.70
2022-09-06T17:09:01.161Z,9.63
2022-09-06T17:11:28.490Z,11.48
2022-09-06T17:13:57.091Z,14.70
2022-09-06T17:16:43.019Z,8.07
2022-09-06T17:19:10.571Z,10.55
2022-09-06T17:21:39.274Z,10.73
2022-09-06T17:24:07.699Z,11.43
2022-09-06T17:26:37.544Z,8.60
2022-09-06T17:31:31.717Z,9.57
2022-09-06T17:34:02.218Z,11.15
2022-09-06T17:36:31.665Z,6.55
2022-09-06T17:39:14.962Z,9.95
2022-09-06T17:41:46.036Z,9.95
2022-09-06T17:44:15.453Z,7.22
2022-09-06T17:46:56.980Z,4.50
2022-09-06T17:49:30.810Z,9.27
2022-09-06T17:51:58.380Z,15.48
2022-09-06T17:54:25.481Z,7.80
2022-09-06T17:56:52.221Z,6.93
2022-09-06T17:59:19.249Z,5.60
2022-09-06T18:01:46.116Z,8.75
2022-09-06T18:04:13.906Z,14.45
2022-09-06T18:06:43.141Z,9.88
2022-09-06T18:09:12.336Z,10.27
2022-09-06T18:11:40.189Z,10.13
2022-09-06T18:14:11.737Z,10.40
2022-09-06T18:16:40.381Z,8.18
2022-09-06T18:19:08.928Z,6.65
2022-09-06T18:21:37.915Z,12.57
2022-09-06T18:24:05.707Z,10.82
2022-09-06T18:26:33.043Z,9.73
2022-09-06T18:29:00.218Z,9.35
2022-09-06T18:31:27.685Z,6.80
2022-09-06T18:33:59.136Z,11.70
2022-09-06T18:36:31.194Z,8.43
2022-09-06T18:39:05.002Z,7.95
2022-09-06T18:41:51.796Z,8.95
2022-09-06T18:44:19.394Z,9.10
2022-09-06T18:46:46.506Z,9.88
2022-09-06T18:49:15.379Z,11.40
2022-09-06T18:51:43.289Z,10.80
2022-09-06T18:54:11.242Z,7.95
2022-09-06T18:56:38.473Z,8.27
2022-09-06T18:59:06.117Z,10.93
2022-09-06T19:01:34.841Z,8.65
2022-09-06T19:04:02.808Z,10.48
2022-09-06T19:06:31.578Z,10.13
2022-09-06T19:09:00.772Z,10.52
2022-09-06T19:11:28.074Z,8.50
2022-09-06T19:13:56.605Z,6.78
2022-09-06T19:16:25.571Z,8.77
2022-09-06T19:18:55.920Z,9.63
2022-09-06T19:21:25.717Z,13.52
2022-09-06T19:23:58.461Z,8.95
2022-09-06T19:26:28.105Z,10.68
2022-09-06T19:28:58.376Z,9.05
2022-09-06T19:31:27.848Z,10.52
2022-09-06T19:33:55.569Z,13.25
2022-09-06T19:36:24.114Z,6.65
2022-09-06T19:39:06.555Z,11.27
2022-09-06T19:41:38.661Z,10.85
2022-09-06T19:44:08.880Z,9.88
2022-09-06T19:46:37.144Z,10.43
2022-09-06T19:49:05.521Z,10.50
2022-09-06T19:51:33.096Z,11.10
2022-09-06T19:54:00.469Z,11.07
2022-09-06T19:56:31.925Z,9.82
2022-09-06T19:59:04.601Z,9.68
2022-09-06T20:01:33.168Z,14.40
2022-09-06T20:04:02.962Z,10.82
2022-09-06T20:06:30.581Z,10.32
2022-09-06T20:08:59.391Z,8.38
2022-09-06T20:11:29.244Z,15.98
2022-09-06T20:13:56.511Z,11.30
2022-09-06T20:16:27.713Z,10.32
2022-09-06T20:18:55.476Z,10.20
2022-09-06T20:21:22.448Z,11.73
2022-09-06T20:23:51.417Z,13.35
2022-09-06T20:26:19.421Z,12.48
2022-09-06T20:28:47.314Z,7.80
2022-09-06T20:31:16.813Z,9.70
2022-09-06T20:33:48.707Z,9.63
2022-09-06T20:36:18.311Z,8.98
2022-09-06T20:38:46.907Z,6.13
2022-09-06T20:41:19.057Z,10.25
2022-09-06T20:43:50.771Z,8.20
2022-09-06T20:46:19.619Z,8.52
2022-09-06T20:48:47.553Z,7.28
2022-09-06T20:51:19.756Z,18.15
2022-09-06T20:53:49.143Z,11.63
2022-09-06T20:56:19.556Z,8.93
2022-09-06T20:58:51.440Z,8.77
2022-09-06T21:01:22.560Z,11.80
2022-09-06T21:04:00.877Z,9.52
2022-09-06T21:06:30.335Z,7.10
2022-09-06T21:08:58.021Z,14.52
2022-09-06T21:11:24.859Z,10.63
2022-09-06T21:13:56.062Z,9.93
2022-09-06T21:16:28.155Z,8.85
2022-09-06T21:18:57.772Z,12.23
2022-09-06T21:21:25.375Z,7.30
2022-09-06T21:23:52.977Z,13.00
2022-09-06T21:26:21.679Z,9.60
2022-09-06T21:28:49.540Z,7.75
2022-09-06T21:31:22.077Z,10.05
2022-09-06T21:33:54.810Z,9.25
2022-09-06T21:36:30.183Z,9.02
2022-09-06T21:39:15.585Z,10.45
2022-09-06T21:41:43.997Z,11.95
2022-09-06T21:44:12.390Z,9.70
2022-09-06T21:46:40.236Z,8.88
2022-09-06T21:49:10.206Z,8.85
2022-09-06T21:51:37.488Z,9.55
2022-09-06T21:54:06.183Z,9.05
2022-09-06T21:56:37.373Z,10.20
2022-09-06T21:59:05.555Z,10.20
2022-09-06T22:01:34.564Z,11.15
2022-09-06T22:04:02.615Z,7.85
2022-09-06T22:06:30.873Z,7.45
2022-09-06T22:09:00.384Z,8.93
2022-09-06T22:11:30.193Z,9.30
2022-09-06T22:14:02.097Z,9.43
2022-09-06T22:16:30.130Z,12.43
2022-09-06T22:18:57.489Z,7.93
2022-09-06T22:21:24.716Z,7.10
2022-09-06T22:24:00.326Z,11.63
2022-09-06T22:26:29.864Z,8.10
2022-09-06T22:29:02.196Z,8.65
2022-09-06T22:31:30.805Z,7.72
2022-09-06T22:33:58.454Z,7.75
2022-09-06T22:36:25.554Z,7.88
2022-09-06T22:38:57.607Z,6.85
2022-09-06T22:41:25.711Z,5.80
2022-09-06T22:43:52.685Z,8.45
2022-09-06T22:46:20.554Z,7.75
2022-09-06T22:48:47.403Z,9.75
2022-09-06T22:51:14.496Z,10.63
2022-09-06T22:53:41.209Z,9.73
2022-09-06T22:56:08.221Z,8.10
2022-09-06T22:58:35.441Z,11.25
2022-09-06T23:01:13.496Z,12.73
2022-09-06T23:03:42.137Z,8.90
2022-09-06T23:06:09.680Z,10.27
2022-09-06T23:08:38.145Z,8.20
2022-09-06T23:11:16.363Z,9.95
2022-09-06T23:13:44.232Z,10.68
2022-09-06T23:16:14.690Z,12.50
2022-09-06T23:18:42.326Z,15.57
2022-09-06T23:21:11.246Z,15.52
2022-09-06T23:23:39.336Z,15.07
2022-09-06T23:26:08.327Z,10.98
2022-09-06T23:28:36.559Z,10.35
2022-09-06T23:31:05.861Z,9.98
2022-09-06T23:33:36.369Z,12.93
2022-09-06T23:36:08.321Z,10.88
2022-09-06T23:38:36.836Z,19.17
2022-09-06T23:41:04.716Z,12.07
2022-09-06T23:43:32.007Z,10.20
2022-09-06T23:45:58.653Z,11.23
2022-09-06T23:48:25.738Z,12.75
2022-09-06T23:50:52.415Z,12.20
2022-09-06T23:53:19.846Z,12.35
2022-09-06T23:55:46.582Z,11.80
2022-09-06T23:58:13.674Z,10.23
